»·PEaware :: DCM204 KLAS-KOAK

DCM204 :: KLAS-KOAK

FLIGHT INFORMATION

Flight Status: Arrived
Operator:
DotCom
More flights by this operator :: More flights under this callsign
Pilot: Bill F. (18685)
Aircraft: Cessna 525C Citation CJ4
(C25C)
More flights by this aircraft type
Origin: KLAS Harry Reid Intl
United States
Destination: KOAK Metro Oakland Intl
United States
More flights between these airports :: More routes between these airports
Route: JOHKR2 KENNO RUSME OAKES2
File this flight plan on PilotEdge
Remarks:
Altitude:
(Current/Filed)
36,000ft
Speed:
(Current/Filed)
276kts
Departed: 07-Sep-21 08:15 PM
Arrived: 07-Sep-21 09:21 PM
Distance/Time
Traveled:
353nm/1:05
Distance/Time
To Go:
Arrived

Flight Plot

Page will automatically refresh every two minutes.

Flight plan parsing failed; only flown route is shown


Map Options




Map Legend


Flown Route
Filed Route
Departure Airport
Arrival Airport
Navaid (VOR, NDB)
Fix

Horizontal Profiles

Position Reports

Time Latitude Longitude Heading Altitude Ground
Speed
07-Sep-21 19:48 36.081228 -115.170647 301 2176ft 0kts
07-Sep-21 19:49 36.081228 -115.170647 301 2176ft 0kts
07-Sep-21 19:50 36.081228 -115.170647 301 2176ft 0kts
07-Sep-21 19:51 36.081228 -115.170647 301 2176ft 0kts
07-Sep-21 19:52 36.081228 -115.170647 301 2176ft 0kts
07-Sep-21 19:53 36.081228 -115.170647 301 2176ft 0kts
07-Sep-21 19:54 36.081228 -115.170647 301 2176ft 0kts
07-Sep-21 19:55 36.081228 -115.170647 301 2176ft 0kts
07-Sep-21 19:56 36.081228 -115.170647 301 2176ft 0kts
07-Sep-21 19:57 36.081228 -115.170647 301 2176ft 0kts
07-Sep-21 19:58 36.081228 -115.170647 301 2176ft 0kts
07-Sep-21 19:59 36.081228 -115.170647 301 2176ft 0kts
07-Sep-21 20:00 36.081228 -115.170647 301 2176ft 0kts
07-Sep-21 20:01 36.081228 -115.170647 301 2176ft 0kts
07-Sep-21 20:02 36.081228 -115.170647 301 2176ft 0kts
07-Sep-21 20:03 36.081228 -115.170647 301 2176ft 0kts
07-Sep-21 20:04 36.081228 -115.170647 301 2176ft 0kts
07-Sep-21 20:05 36.081228 -115.170647 301 2176ft 0kts
07-Sep-21 20:06 36.081228 -115.170647 301 2176ft 0kts
07-Sep-21 20:07 36.081228 -115.170647 301 2176ft 0kts
07-Sep-21 20:08 36.081258 -115.170692 315 2176ft 2kts
07-Sep-21 20:09 36.082732 -115.167822 65 2170ft 17kts
07-Sep-21 20:10 36.088617 -115.164274 24 2147ft 28kts
07-Sep-21 20:11 36.097015 -115.159470 24 2102ft 36kts
07-Sep-21 20:12 36.099838 -115.157547 85 2091ft 0kts
07-Sep-21 20:13 36.099838 -115.157547 85 2091ft 0kts
07-Sep-21 20:14 36.097915 -115.157477 202 2098ft 69kts
07-Sep-21 20:15 36.052664 -115.184043 203 4242ft 227kts
07-Sep-21 20:16 35.991086 -115.215329 198 7008ft 254kts
07-Sep-21 20:17 35.937470 -115.271907 229 7005ft 261kts
07-Sep-21 20:19 35.896160 -115.344325 235 12304ft 260kts
07-Sep-21 20:20 35.885864 -115.433815 272 17310ft 283kts
07-Sep-21 20:21 35.888369 -115.544439 271 19023ft 391kts
07-Sep-21 20:22 35.890840 -115.677988 271 19010ft 378kts
07-Sep-21 20:23 35.893033 -115.801665 271 22804ft 331kts
07-Sep-21 20:24 35.895009 -115.914881 270 26141ft 353kts
07-Sep-21 20:25 35.953949 -116.012932 317 29147ft 374kts
07-Sep-21 20:26 36.029472 -116.104027 314 31755ft 388kts
07-Sep-21 20:27 36.106832 -116.200115 315 33997ft 400kts
07-Sep-21 20:28 36.186024 -116.298689 315 36129ft 404kts
07-Sep-21 20:29 36.264286 -116.396138 315 37781ft 416kts
07-Sep-21 20:30 36.352736 -116.501643 316 37812ft 465kts
07-Sep-21 20:31 36.447693 -116.614932 317 37807ft 476kts
07-Sep-21 20:32 36.545213 -116.725787 317 37781ft 472kts
07-Sep-21 20:33 36.641475 -116.835546 318 37795ft 468kts
07-Sep-21 20:34 36.737383 -116.944265 322 37785ft 466kts
07-Sep-21 20:35 36.851732 -117.018224 334 37802ft 463kts
07-Sep-21 20:36 36.965807 -117.092778 333 37794ft 464kts
07-Sep-21 20:37 37.080002 -117.167744 334 37790ft 463kts
07-Sep-21 20:38 37.193926 -117.242427 334 37801ft 462kts
07-Sep-21 20:39 37.306774 -117.318282 326 37793ft 464kts
07-Sep-21 20:40 37.404069 -117.424480 320 37786ft 463kts
07-Sep-21 20:41 37.498573 -117.534316 304 37798ft 463kts
07-Sep-21 20:42 37.534552 -117.685929 265 37786ft 453kts
07-Sep-21 20:43 37.535901 -117.843116 286 37800ft 459kts
07-Sep-21 20:44 37.564338 -117.998413 276 37800ft 456kts
07-Sep-21 20:44 37.583831 -118.129595 278 37796ft 456kts
07-Sep-21 20:45 37.605838 -118.287048 277 37791ft 455kts
07-Sep-21 20:47 37.631911 -118.470301 277 37798ft 455kts
07-Sep-21 20:48 37.653856 -118.627890 277 37799ft 456kts
07-Sep-21 20:48 37.672161 -118.759320 277 37791ft 456kts
07-Sep-21 20:50 37.697373 -118.942623 277 37802ft 456kts
07-Sep-21 20:51 37.718853 -119.100596 277 37807ft 457kts
07-Sep-21 20:52 37.740176 -119.258738 277 37794ft 456kts
07-Sep-21 20:52 37.757739 -119.390429 276 37802ft 456kts
07-Sep-21 20:53 37.778559 -119.548183 276 37804ft 455kts
07-Sep-21 20:54 37.799778 -119.710545 276 35600ft 466kts
07-Sep-21 20:55 37.817290 -119.868928 270 33096ft 444kts
07-Sep-21 20:56 37.838155 -120.019625 276 30541ft 436kts
07-Sep-21 20:57 37.857282 -120.169233 275 28189ft 427kts
07-Sep-21 20:58 37.876622 -120.314890 275 26007ft 412kts
07-Sep-21 20:59 37.866259 -120.449428 248 24664ft 370kts
07-Sep-21 21:00 37.844249 -120.573911 253 23492ft 353kts
07-Sep-21 21:01 37.823697 -120.692706 252 22415ft 341kts
07-Sep-21 21:02 37.802872 -120.814127 252 21318ft 388kts
07-Sep-21 21:03 37.780108 -120.945964 253 19500ft 408kts
07-Sep-21 21:04 37.775480 -120.972716 253 19065ft 407kts
07-Sep-21 21:05 37.769971 -121.004289 253 18571ft 406kts
07-Sep-21 21:06 37.749387 -121.121123 253 16824ft 401kts
07-Sep-21 21:07 37.725765 -121.256601 254 14812ft 383kts
07-Sep-21 21:08 37.713577 -121.384574 261 12782ft 354kts
07-Sep-21 21:10 37.700543 -121.524028 262 10086ft 330kts
07-Sep-21 21:10 37.692363 -121.614010 264 8534ft 274kts
07-Sep-21 21:11 37.683856 -121.703583 264 7140ft 241kts
07-Sep-21 21:12 37.675614 -121.786750 265 6044ft 248kts
07-Sep-21 21:13 37.659202 -121.872238 245 5382ft 247kts
07-Sep-21 21:14 37.635868 -121.935809 266 5369ft 216kts
07-Sep-21 21:15 37.658126 -121.998822 301 5241ft 201kts
07-Sep-21 21:16 37.676018 -122.054425 294 3296ft 153kts
07-Sep-21 21:17 37.692618 -122.104647 291 1711ft 173kts
07-Sep-21 21:18 37.709436 -122.156453 290 890ft 138kts
07-Sep-21 21:19 37.720554 -122.191622 290 272ft 105kts
07-Sep-21 21:20 37.727716 -122.213643 302 7ft 0kts
07-Sep-21 21:21 37.728872 -122.213894 21 7ft 7kts
07-Sep-21 21:22 37.729804 -122.213105 128 8ft 0kts

Navigation Log

Ident Type
Flight plan parsing failed, navigation log unavailable